sensor_id;sensor_type;location;lat;lon;timestamp;pressure;altitude;pressure_sealevel;temperature
24201;BMP280;2801;50.972;7.856;2024-02-23T00:01:48;94942.34;;;5.90
24201;BMP280;2801;50.972;7.856;2024-02-23T00:04:15;94951.38;;;5.86
24201;BMP280;2801;50.972;7.856;2024-02-23T00:06:42;94945.47;;;5.96
24201;BMP280;2801;50.972;7.856;2024-02-23T00:09:09;94958.00;;;5.95
24201;BMP280;2801;50.972;7.856;2024-02-23T00:11:40;94967.78;;;5.91
24201;BMP280;2801;50.972;7.856;2024-02-23T00:14:12;94980.78;;;5.96
24201;BMP280;2801;50.972;7.856;2024-02-23T00:16:40;94977.00;;;5.97
24201;BMP280;2801;50.972;7.856;2024-02-23T00:19:10;94983.41;;;5.93
24201;BMP280;2801;50.972;7.856;2024-02-23T00:21:38;94991.84;;;5.98
24201;BMP280;2801;50.972;7.856;2024-02-23T00:24:06;95002.28;;;5.88
24201;BMP280;2801;50.972;7.856;2024-02-23T00:26:33;95004.53;;;5.86
24201;BMP280;2801;50.972;7.856;2024-02-23T00:29:00;95008.31;;;5.85
24201;BMP280;2801;50.972;7.856;2024-02-23T00:31:27;95025.09;;;5.89
24201;BMP280;2801;50.972;7.856;2024-02-23T00:33:54;95023.19;;;5.89
24201;BMP280;2801;50.972;7.856;2024-02-23T00:36:21;95036.25;;;5.79
24201;BMP280;2801;50.972;7.856;2024-02-23T00:38:48;95051.72;;;5.73
24201;BMP280;2801;50.972;7.856;2024-02-23T00:41:15;95040.31;;;5.73
24201;BMP280;2801;50.972;7.856;2024-02-23T00:43:42;95056.97;;;5.70
24201;BMP280;2801;50.972;7.856;2024-02-23T00:46:09;95054.84;;;5.79
24201;BMP280;2801;50.972;7.856;2024-02-23T00:48:36;95063.13;;;5.74
24201;BMP280;2801;50.972;7.856;2024-02-23T00:51:03;95056.97;;;5.70
24201;BMP280;2801;50.972;7.856;2024-02-23T00:53:31;95080.25;;;5.57
24201;BMP280;2801;50.972;7.856;2024-02-23T00:55:59;95074.97;;;5.61
24201;BMP280;2801;50.972;7.856;2024-02-23T00:58:26;95082.41;;;5.52
24201;BMP280;2801;50.972;7.856;2024-02-23T01:00:53;95082.47;;;5.55
24201;BMP280;2801;50.972;7.856;2024-02-23T01:03:20;95079.81;;;5.55
24201;BMP280;2801;50.972;7.856;2024-02-23T01:05:47;95081.28;;;5.53
24201;BMP280;2801;50.972;7.856;2024-02-23T01:08:14;95083.88;;;5.49
24201;BMP280;2801;50.972;7.856;2024-02-23T01:10:41;95084.28;;;5.51
24201;BMP280;2801;50.972;7.856;2024-02-23T01:13:08;95088.91;;;5.54
24201;BMP280;2801;50.972;7.856;2024-02-23T01:15:35;95098.41;;;5.55
24201;BMP280;2801;50.972;7.856;2024-02-23T01:18:04;95108.03;;;5.44
24201;BMP280;2801;50.972;7.856;2024-02-23T01:20:32;95124.81;;;5.48
24201;BMP280;2801;50.972;7.856;2024-02-23T01:23:00;95141.03;;;5.43
24201;BMP280;2801;50.972;7.856;2024-02-23T01:25:27;95131.53;;;5.42
24201;BMP280;2801;50.972;7.856;2024-02-23T01:27:54;95135.88;;;5.35
24201;BMP280;2801;50.972;7.856;2024-02-23T01:30:20;95141.47;;;5.45
24201;BMP280;2801;50.972;7.856;2024-02-23T01:32:48;95137.19;;;5.41
24201;BMP280;2801;50.972;7.856;2024-02-23T01:35:16;95146.50;;;5.35
24201;BMP280;2801;50.972;7.856;2024-02-23T01:37:43;95144.97;;;5.34
24201;BMP280;2801;50.972;7.856;2024-02-23T01:40:11;95148.66;;;5.29
24201;BMP280;2801;50.972;7.856;2024-02-23T01:42:38;95149.38;;;5.26
24201;BMP280;2801;50.972;7.856;2024-02-23T01:45:06;95153.47;;;5.24
24201;BMP280;2801;50.972;7.856;2024-02-23T01:47:33;95149.63;;;5.21
24201;BMP280;2801;50.972;7.856;2024-02-23T01:50:00;95147.75;;;5.22
24201;BMP280;2801;50.972;7.856;2024-02-23T01:52:29;95151.59;;;5.09
24201;BMP280;2801;50.972;7.856;2024-02-23T01:54:56;95151.78;;;5.00
24201;BMP280;2801;50.972;7.856;2024-02-23T01:57:24;95161.53;;;4.96
24201;BMP280;2801;50.972;7.856;2024-02-23T02:00:16;95169.13;;;4.82
24201;BMP280;2801;50.972;7.856;2024-02-23T02:02:44;95173.00;;;4.85
24201;BMP280;2801;50.972;7.856;2024-02-23T02:05:11;95170.16;;;4.78
24201;BMP280;2801;50.972;7.856;2024-02-23T02:07:41;95181.50;;;4.63
24201;BMP280;2801;50.972;7.856;2024-02-23T02:10:12;95192.81;;;4.60
24201;BMP280;2801;50.972;7.856;2024-02-23T02:12:39;95189.97;;;4.53
24201;BMP280;2801;50.972;7.856;2024-02-23T02:15:06;95199.72;;;4.49
24201;BMP280;2801;50.972;7.856;2024-02-23T02:17:34;95208.34;;;4.46
24201;BMP280;2801;50.972;7.856;2024-02-23T02:20:05;95199.63;;;4.45
24201;BMP280;2801;50.972;7.856;2024-02-23T02:22:33;95213.34;;;4.35
24201;BMP280;2801;50.972;7.856;2024-02-23T02:25:01;95230.91;;;4.40
24201;BMP280;2801;50.972;7.856;2024-02-23T02:27:28;95231.34;;;4.42
24201;BMP280;2801;50.972;7.856;2024-02-23T02:29:58;95226.53;;;4.32
24201;BMP280;2801;50.972;7.856;2024-02-23T02:32:25;95238.41;;;4.50
24201;BMP280;2801;50.972;7.856;2024-02-23T02:34:52;95244.25;;;4.55
24201;BMP280;2801;50.972;7.856;2024-02-23T02:37:19;95261.78;;;4.60
24201;BMP280;2801;50.972;7.856;2024-02-23T02:39:46;95257.78;;;4.66
24201;BMP280;2801;50.972;7.856;2024-02-23T02:42:13;95265.41;;;4.67
24201;BMP280;2801;50.972;7.856;2024-02-23T02:44:40;95243.66;;;4.62
24201;BMP280;2801;50.972;7.856;2024-02-23T02:47:07;95261.75;;;4.72
24201;BMP280;2801;50.972;7.856;2024-02-23T02:49:34;95259.31;;;4.67
24201;BMP280;2801;50.972;7.856;2024-02-23T02:52:01;95256.84;;;4.74
24201;BMP280;2801;50.972;7.856;2024-02-23T02:54:28;95258.94;;;4.80
24201;BMP280;2801;50.972;7.856;2024-02-23T02:56:55;95257.06;;;4.81
24201;BMP280;2801;50.972;7.856;2024-02-23T02:59:23;95262.69;;;4.79
24201;BMP280;2801;50.972;7.856;2024-02-23T03:01:54;95264.94;;;4.77
24201;BMP280;2801;50.972;7.856;2024-02-23T03:04:22;95252.41;;;4.78
24201;BMP280;2801;50.972;7.856;2024-02-23T03:06:49;95263.72;;;4.75
24201;BMP280;2801;50.972;7.856;2024-02-23T03:09:15;95269.22;;;4.82
24201;BMP280;2801;50.972;7.856;2024-02-23T03:11:42;95274.31;;;4.75
24201;BMP280;2801;50.972;7.856;2024-02-23T03:14:09;95270.00;;;4.82
24201;BMP280;2801;50.972;7.856;2024-02-23T03:16:37;95264.56;;;4.79
24201;BMP280;2801;50.972;7.856;2024-02-23T03:19:04;95267.13;;;4.75
24201;BMP280;2801;50.972;7.856;2024-02-23T03:21:31;95282.72;;;4.77
24201;BMP280;2801;50.972;7.856;2024-02-23T03:23:58;95272.91;;;4.77
24201;BMP280;2801;50.972;7.856;2024-02-23T03:26:25;95269.38;;;4.73
24201;BMP280;2801;50.972;7.856;2024-02-23T03:28:52;95269.41;;;4.61
24201;BMP280;2801;50.972;7.856;2024-02-23T03:31:19;95279.31;;;4.49
24201;BMP280;2801;50.972;7.856;2024-02-23T03:33:46;95283.63;;;4.41
24201;BMP280;2801;50.972;7.856;2024-02-23T03:36:13;95292.81;;;4.32
24201;BMP280;2801;50.972;7.856;2024-02-23T03:38:40;95295.78;;;4.30
24201;BMP280;2801;50.972;7.856;2024-02-23T03:41:07;95291.69;;;4.33
24201;BMP280;2801;50.972;7.856;2024-02-23T03:43:34;95290.28;;;4.23
24201;BMP280;2801;50.972;7.856;2024-02-23T03:46:01;95292.72;;;4.16
24201;BMP280;2801;50.972;7.856;2024-02-23T03:48:28;95291.63;;;4.05
24201;BMP280;2801;50.972;7.856;2024-02-23T03:50:55;95295.94;;;4.10
24201;BMP280;2801;50.972;7.856;2024-02-23T03:53:22;95290.88;;;4.05
24201;BMP280;2801;50.972;7.856;2024-02-23T03:55:49;95295.28;;;4.01
24201;BMP280;2801;50.972;7.856;2024-02-23T03:58:16;95300.94;;;3.99
24201;BMP280;2801;50.972;7.856;2024-02-23T04:00:43;95302.56;;;3.91
24201;BMP280;2801;50.972;7.856;2024-02-23T04:03:10;95307.56;;;3.81
24201;BMP280;2801;50.972;7.856;2024-02-23T04:05:37;95302.72;;;3.83
24201;BMP280;2801;50.972;7.856;2024-02-23T04:08:05;95303.69;;;3.78
24201;BMP280;2801;50.972;7.856;2024-02-23T04:10:32;95303.56;;;3.75
24201;BMP280;2801;50.972;7.856;2024-02-23T04:13:01;95308.66;;;3.68
24201;BMP280;2801;50.972;7.856;2024-02-23T04:15:27;95312.28;;;3.63
24201;BMP280;2801;50.972;7.856;2024-02-23T04:17:54;95298.81;;;3.56
24201;BMP280;2801;50.972;7.856;2024-02-23T04:20:22;95321.34;;;3.62
24201;BMP280;2801;50.972;7.856;2024-02-23T04:22:49;95318.91;;;3.57
24201;BMP280;2801;50.972;7.856;2024-02-23T04:25:16;95318.91;;;3.57
24201;BMP280;2801;50.972;7.856;2024-02-23T04:27:42;95315.03;;;3.55
24201;BMP280;2801;50.972;7.856;2024-02-23T04:30:11;95299.94;;;3.55
24201;BMP280;2801;50.972;7.856;2024-02-23T04:32:39;95310.41;;;3.52
24201;BMP280;2801;50.972;7.856;2024-02-23T04:35:06;95309.97;;;3.50
24201;BMP280;2801;50.972;7.856;2024-02-23T04:37:34;95320.09;;;3.48
24201;BMP280;2801;50.972;7.856;2024-02-23T04:40:03;95312.06;;;3.44
24201;BMP280;2801;50.972;7.856;2024-02-23T04:42:33;95323.75;;;3.43
24201;BMP280;2801;50.972;7.856;2024-02-23T04:45:00;95319.53;;;3.42
24201;BMP280;2801;50.972;7.856;2024-02-23T04:47:27;95322.00;;;3.47
24201;BMP280;2801;50.972;7.856;2024-02-23T04:49:54;95318.34;;;3.52
24201;BMP280;2801;50.972;7.856;2024-02-23T04:52:21;95325.72;;;3.46
24201;BMP280;2801;50.972;7.856;2024-02-23T04:54:48;95322.31;;;3.46
24201;BMP280;2801;50.972;7.856;2024-02-23T04:57:15;95331.69;;;3.43
24201;BMP280;2801;50.972;7.856;2024-02-23T04:59:42;95340.41;;;3.44
24201;BMP280;2801;50.972;7.856;2024-02-23T05:02:09;95339.97;;;3.42
24201;BMP280;2801;50.972;7.856;2024-02-23T05:04:36;95337.50;;;3.37
24201;BMP280;2801;50.972;7.856;2024-02-23T05:07:03;95337.31;;;3.30
24201;BMP280;2801;50.972;7.856;2024-02-23T05:09:31;95336.63;;;3.33
24201;BMP280;2801;50.972;7.856;2024-02-23T05:11:58;95339.09;;;3.38
24201;BMP280;2801;50.972;7.856;2024-02-23T05:14:26;95341.50;;;3.43
24201;BMP280;2801;50.972;7.856;2024-02-23T05:16:53;95340.41;;;3.44
24201;BMP280;2801;50.972;7.856;2024-02-23T05:19:20;95338.75;;;3.39
24201;BMP280;2801;50.972;7.856;2024-02-23T05:21:48;95338.63;;;3.36
24201;BMP280;2801;50.972;7.856;2024-02-23T05:24:14;95337.41;;;3.33
24201;BMP280;2801;50.972;7.856;2024-02-23T05:26:41;95334.75;;;3.33
24201;BMP280;2801;50.972;7.856;2024-02-23T05:29:10;95339.84;;;3.38
24201;BMP280;2801;50.972;7.856;2024-02-23T05:31:48;95340.94;;;3.37
24201;BMP280;2801;50.972;7.856;2024-02-23T05:34:15;95331.91;;;3.38
24201;BMP280;2801;50.972;7.856;2024-02-23T05:36:43;95337.97;;;3.39
24201;BMP280;2801;50.972;7.856;2024-02-23T05:39:10;95343.50;;;3.34
24201;BMP280;2801;50.972;7.856;2024-02-23T05:41:37;95345.78;;;3.35
24201;BMP280;2801;50.972;7.856;2024-02-23T05:44:05;95356.47;;;3.27
24201;BMP280;2801;50.972;7.856;2024-02-23T05:46:34;95348.63;;;3.18
24201;BMP280;2801;50.972;7.856;2024-02-23T05:49:03;95356.44;;;3.15
24201;BMP280;2801;50.972;7.856;2024-02-23T05:51:31;95355.09;;;3.09
24201;BMP280;2801;50.972;7.856;2024-02-23T05:53:58;95350.34;;;3.02
24201;BMP280;2801;50.972;7.856;2024-02-23T05:56:25;95347.88;;;2.97
24201;BMP280;2801;50.972;7.856;2024-02-23T05:58:52;95358.66;;;2.92
24201;BMP280;2801;50.972;7.856;2024-02-23T06:01:20;95356.66;;;2.89
24201;BMP280;2801;50.972;7.856;2024-02-23T06:03:47;95352.38;;;2.85
24201;BMP280;2801;50.972;7.856;2024-02-23T06:06:14;95347.19;;;2.88
24201;BMP280;2801;50.972;7.856;2024-02-23T06:08:41;95352.22;;;2.81
24201;BMP280;2801;50.972;7.856;2024-02-23T06:11:10;95348.34;;;2.79
24201;BMP280;2801;50.972;7.856;2024-02-23T06:13:37;95349.47;;;2.78
24201;BMP280;2801;50.972;7.856;2024-02-23T06:16:10;95347.13;;;2.76
24201;BMP280;2801;50.972;7.856;2024-02-23T06:18:38;95340.16;;;2.72
24201;BMP280;2801;50.972;7.856;2024-02-23T06:21:13;95348.09;;;2.72
24201;BMP280;2801;50.972;7.856;2024-02-23T06:23:41;95352.38;;;2.64
24201;BMP280;2801;50.972;7.856;2024-02-23T06:26:08;95349.91;;;2.59
24201;BMP280;2801;50.972;7.856;2024-02-23T06:28:35;95352.75;;;2.54
24201;BMP280;2801;50.972;7.856;2024-02-23T06:31:05;95342.81;;;2.51
24201;BMP280;2801;50.972;7.856;2024-02-23T06:33:32;95347.34;;;2.51
24201;BMP280;2801;50.972;7.856;2024-02-23T06:35:59;95344.88;;;2.46
24201;BMP280;2801;50.972;7.856;2024-02-23T06:38:27;95346.41;;;2.47
24201;BMP280;2801;50.972;7.856;2024-02-23T06:40:56;95349.53;;;2.49
24201;BMP280;2801;50.972;7.856;2024-02-23T06:43:23;95350.31;;;2.49
24201;BMP280;2801;50.972;7.856;2024-02-23T06:45:50;95348.75;;;2.48
24201;BMP280;2801;50.972;7.856;2024-02-23T06:48:18;95349.41;;;2.45
24201;BMP280;2801;50.972;7.856;2024-02-23T06:50:45;95343.78;;;2.47
24201;BMP280;2801;50.972;7.856;2024-02-23T06:53:12;95347.19;;;2.47
24201;BMP280;2801;50.972;7.856;2024-02-23T06:55:40;95341.28;;;2.50
24201;BMP280;2801;50.972;7.856;2024-02-23T06:58:08;95341.84;;;2.56
24201;BMP280;2801;50.972;7.856;2024-02-23T07:00:38;95347.59;;;2.58
24201;BMP280;2801;50.972;7.856;2024-02-23T07:03:05;95357.00;;;2.67
24201;BMP280;2801;50.972;7.856;2024-02-23T07:05:32;95355.59;;;2.70
24201;BMP280;2801;50.972;7.856;2024-02-23T07:07:59;95362.94;;;2.85
24201;BMP280;2801;50.972;7.856;2024-02-23T07:10:27;95364.31;;;3.03
24201;BMP280;2801;50.972;7.856;2024-02-23T07:12:54;95361.53;;;3.20
24201;BMP280;2801;50.972;7.856;2024-02-23T07:15:22;95372.41;;;3.39
24201;BMP280;2801;50.972;7.856;2024-02-23T07:17:49;95381.25;;;3.55
24201;BMP280;2801;50.972;7.856;2024-02-23T07:20:19;95379.09;;;3.69
24201;BMP280;2801;50.972;7.856;2024-02-23T07:22:47;95379.00;;;3.77
24201;BMP280;2801;50.972;7.856;2024-02-23T07:25:20;95386.38;;;3.84
24201;BMP280;2801;50.972;7.856;2024-02-23T07:27:48;95384.84;;;3.95
24201;BMP280;2801;50.972;7.856;2024-02-23T07:30:16;95389.16;;;3.99
24201;BMP280;2801;50.972;7.856;2024-02-23T07:32:46;95384.22;;;4.10
24201;BMP280;2801;50.972;7.856;2024-02-23T07:35:19;95378.44;;;4.20
24201;BMP280;2801;50.972;7.856;2024-02-23T07:37:46;95387.63;;;4.35
24201;BMP280;2801;50.972;7.856;2024-02-23T07:40:19;95377.09;;;4.38
24201;BMP280;2801;50.972;7.856;2024-02-23T07:42:48;95375.00;;;4.44
24201;BMP280;2801;50.972;7.856;2024-02-23T07:45:15;95372.16;;;4.49
24201;BMP280;2801;50.972;7.856;2024-02-23T07:47:42;95366.84;;;4.49
24201;BMP280;2801;50.972;7.856;2024-02-23T07:50:09;95370.47;;;4.56
24201;BMP280;2801;50.972;7.856;2024-02-23T07:52:37;95368.25;;;4.58
24201;BMP280;2801;50.972;7.856;2024-02-23T07:55:06;95371.34;;;4.60
24201;BMP280;2801;50.972;7.856;2024-02-23T07:57:33;95372.31;;;4.68
24201;BMP280;2801;50.972;7.856;2024-02-23T08:00:01;95379.50;;;4.67
24201;BMP280;2801;50.972;7.856;2024-02-23T08:02:28;95387.75;;;4.78
24201;BMP280;2801;50.972;7.856;2024-02-23T08:04:55;95391.03;;;4.99
24201;BMP280;2801;50.972;7.856;2024-02-23T08:07:22;95392.91;;;4.98
24201;BMP280;2801;50.972;7.856;2024-02-23T08:09:49;95407.06;;;5.02
24201;BMP280;2801;50.972;7.856;2024-02-23T08:12:19;95400.81;;;5.10
24201;BMP280;2801;50.972;7.856;2024-02-23T08:14:47;95400.81;;;5.22
24201;BMP280;2801;50.972;7.856;2024-02-23T08:17:16;95401.09;;;5.33
24201;BMP280;2801;50.972;7.856;2024-02-23T08:19:43;95401.16;;;5.36
24201;BMP280;2801;50.972;7.856;2024-02-23T08:22:10;95394.72;;;5.49
24201;BMP280;2801;50.972;7.856;2024-02-23T08:24:37;95392.56;;;5.55
24201;BMP280;2801;50.972;7.856;2024-02-23T08:27:04;95384.41;;;5.63
24201;BMP280;2801;50.972;7.856;2024-02-23T08:29:31;95394.66;;;5.77
24201;BMP280;2801;50.972;7.856;2024-02-23T08:31:58;95393.91;;;5.92
24201;BMP280;2801;50.972;7.856;2024-02-23T08:34:25;95396.84;;;6.02
24201;BMP280;2801;50.972;7.856;2024-02-23T08:36:52;95402.09;;;6.14
24201;BMP280;2801;50.972;7.856;2024-02-23T08:39:19;95391.00;;;6.12
24201;BMP280;2801;50.972;7.856;2024-02-23T08:41:49;95408.19;;;6.15
24201;BMP280;2801;50.972;7.856;2024-02-23T08:44:18;95408.16;;;6.30
24201;BMP280;2801;50.972;7.856;2024-02-23T08:46:45;95407.53;;;6.37
24201;BMP280;2801;50.972;7.856;2024-02-23T08:49:12;95409.34;;;6.48
24201;BMP280;2801;50.972;7.856;2024-02-23T08:51:39;95407.19;;;6.54
24201;BMP280;2801;50.972;7.856;2024-02-23T08:54:06;95402.19;;;6.68
24201;BMP280;2801;50.972;7.856;2024-02-23T08:56:38;95400.13;;;6.61
24201;BMP280;2801;50.972;7.856;2024-02-23T08:59:09;95398.41;;;6.69
24201;BMP280;2801;50.972;7.856;2024-02-23T09:01:37;95399.09;;;6.66
24201;BMP280;2801;50.972;7.856;2024-02-23T09:04:04;95391.59;;;6.71
24201;BMP280;2801;50.972;7.856;2024-02-23T09:06:31;95396.78;;;6.99
24201;BMP280;2801;50.972;7.856;2024-02-23T09:09:05;95398.50;;;7.10
24201;BMP280;2801;50.972;7.856;2024-02-23T09:11:32;95381.44;;;7.11
24201;BMP280;2801;50.972;7.856;2024-02-23T09:13:59;95393.06;;;7.22
24201;BMP280;2801;50.972;7.856;2024-02-23T09:16:26;95389.28;;;7.23
24201;BMP280;2801;50.972;7.856;2024-02-23T09:18:53;95391.81;;;7.16
24201;BMP280;2801;50.972;7.856;2024-02-23T09:21:20;95386.13;;;7.18
24201;BMP280;2801;50.972;7.856;2024-02-23T09:23:47;95384.75;;;7.24
24201;BMP280;2801;50.972;7.856;2024-02-23T09:26:15;95393.06;;;7.41
24201;BMP280;2801;50.972;7.856;2024-02-23T09:28:42;95396.56;;;7.45
24201;BMP280;2801;50.972;7.856;2024-02-23T09:31:11;95404.84;;;7.40
24201;BMP280;2801;50.972;7.856;2024-02-23T09:33:38;95412.78;;;7.37
24201;BMP280;2801;50.972;7.856;2024-02-23T09:36:05;95409.31;;;7.55
24201;BMP280;2801;50.972;7.856;2024-02-23T09:38:32;95407.25;;;7.68
24201;BMP280;2801;50.972;7.856;2024-02-23T09:41:00;95404.53;;;7.64
24201;BMP280;2801;50.972;7.856;2024-02-23T09:43:30;95400.94;;;7.76
24201;BMP280;2801;50.972;7.856;2024-02-23T09:46:00;95413.22;;;7.81
24201;BMP280;2801;50.972;7.856;2024-02-23T09:48:28;95409.75;;;7.80
24201;BMP280;2801;50.972;7.856;2024-02-23T09:50:57;95413.78;;;7.70
24201;BMP280;2801;50.972;7.856;2024-02-23T09:53:24;95407.06;;;7.99
24201;BMP280;2801;50.972;7.856;2024-02-23T09:55:53;95402.78;;;8.17
24201;BMP280;2801;50.972;7.856;2024-02-23T09:58:21;95403.53;;;8.63
24201;BMP280;2801;50.972;7.856;2024-02-23T10:00:48;95399.16;;;8.77
24201;BMP280;2801;50.972;7.856;2024-02-23T10:03:16;95402.56;;;8.74
24201;BMP280;2801;50.972;7.856;2024-02-23T10:05:43;95396.25;;;8.60
24201;BMP280;2801;50.972;7.856;2024-02-23T10:08:12;95415.81;;;8.41
24201;BMP280;2801;50.972;7.856;2024-02-23T10:10:40;95421.47;;;8.17
24201;BMP280;2801;50.972;7.856;2024-02-23T10:13:08;95418.03;;;7.94
24201;BMP280;2801;50.972;7.856;2024-02-23T10:15:35;95422.81;;;7.85
24201;BMP280;2801;50.972;7.856;2024-02-23T10:18:03;95413.72;;;7.67
24201;BMP280;2801;50.972;7.856;2024-02-23T10:20:31;95409.38;;;7.78
24201;BMP280;2801;50.972;7.856;2024-02-23T10:22:58;95412.38;;;7.77
24201;BMP280;2801;50.972;7.856;2024-02-23T10:25:25;95413.56;;;7.79
24201;BMP280;2801;50.972;7.856;2024-02-23T10:27:52;95416.19;;;7.98
24201;BMP280;2801;50.972;7.856;2024-02-23T10:30:19;95409.09;;;8.28
24201;BMP280;2801;50.972;7.856;2024-02-23T10:32:47;95401.31;;;8.42
24201;BMP280;2801;50.972;7.856;2024-02-23T10:35:16;95393.44;;;8.49
24201;BMP280;2801;50.972;7.856;2024-02-23T10:37:49;95397.22;;;8.48
24201;BMP280;2801;50.972;7.856;2024-02-23T10:40:21;95400.09;;;8.62
24201;BMP280;2801;50.972;7.856;2024-02-23T10:42:57;95405.91;;;8.68
24201;BMP280;2801;50.972;7.856;2024-02-23T10:45:29;95410.19;;;8.72
24201;BMP280;2801;50.972;7.856;2024-02-23T10:47:58;95402.75;;;8.88
24201;BMP280;2801;50.972;7.856;2024-02-23T10:50:26;95403.78;;;9.06
24201;BMP280;2801;50.972;7.856;2024-02-23T10:52:55;95393.22;;;9.17
24201;BMP280;2801;50.972;7.856;2024-02-23T10:55:24;95403.31;;;9.30
24201;BMP280;2801;50.972;7.856;2024-02-23T10:57:55;95399.94;;;9.37
24201;BMP280;2801;50.972;7.856;2024-02-23T11:00:23;95393.59;;;9.48
24201;BMP280;2801;50.972;7.856;2024-02-23T11:02:54;95398.75;;;9.64
24201;BMP280;2801;50.972;7.856;2024-02-23T11:05:23;95397.34;;;9.77
24201;BMP280;2801;50.972;7.856;2024-02-23T11:07:51;95396.28;;;9.85
24201;BMP280;2801;50.972;7.856;2024-02-23T11:10:23;95413.44;;;9.80
24201;BMP280;2801;50.972;7.856;2024-02-23T11:12:59;95398.00;;;9.67
24201;BMP280;2801;50.972;7.856;2024-02-23T11:15:28;95394.75;;;9.47
24201;BMP280;2801;50.972;7.856;2024-02-23T11:17:55;95397.44;;;9.51
24201;BMP280;2801;50.972;7.856;2024-02-23T11:20:23;95400.25;;;9.28
24201;BMP280;2801;50.972;7.856;2024-02-23T11:22:59;95406.66;;;9.24
24201;BMP280;2801;50.972;7.856;2024-02-23T11:25:27;95410.03;;;9.17
24201;BMP280;2801;50.972;7.856;2024-02-23T11:27:54;95403.31;;;9.01
24201;BMP280;2801;50.972;7.856;2024-02-23T11:30:21;95412.41;;;8.96
24201;BMP280;2801;50.972;7.856;2024-02-23T11:32:48;95410.00;;;8.88
24201;BMP280;2801;50.972;7.856;2024-02-23T11:35:18;95423.22;;;8.77
24201;BMP280;2801;50.972;7.856;2024-02-23T11:37:53;95419.38;;;8.75
24201;BMP280;2801;50.972;7.856;2024-02-23T11:40:31;95416.72;;;8.78
24201;BMP280;2801;50.972;7.856;2024-02-23T11:42:59;95418.69;;;8.81
24201;BMP280;2801;50.972;7.856;2024-02-23T11:45:30;95406.38;;;8.73
24201;BMP280;2801;50.972;7.856;2024-02-23T11:47:58;95415.31;;;8.84
24201;BMP280;2801;50.972;7.856;2024-02-23T11:50:26;95413.50;;;8.92
24201;BMP280;2801;50.972;7.856;2024-02-23T11:52:53;95414.97;;;8.89
24201;BMP280;2801;50.972;7.856;2024-02-23T11:55:22;95414.59;;;8.87
24201;BMP280;2801;50.972;7.856;2024-02-23T11:57:50;95407.66;;;8.83
24201;BMP280;2801;50.972;7.856;2024-02-23T12:00:30;95405.75;;;8.83
24201;BMP280;2801;50.972;7.856;2024-02-23T12:02:58;95395.53;;;8.89
24201;BMP280;2801;50.972;7.856;2024-02-23T12:05:25;95409.50;;;8.79
24201;BMP280;2801;50.972;7.856;2024-02-23T12:07:52;95399.88;;;8.74
24201;BMP280;2801;50.972;7.856;2024-02-23T12:10:20;95395.31;;;8.75
24201;BMP280;2801;50.972;7.856;2024-02-23T12:12:48;95397.97;;;8.71
24201;BMP280;2801;50.972;7.856;2024-02-23T12:15:16;95404.63;;;8.58
24201;BMP280;2801;50.972;7.856;2024-02-23T12:17:49;95405.50;;;8.66
24201;BMP280;2801;50.972;7.856;2024-02-23T12:20:17;95395.28;;;8.71
24201;BMP280;2801;50.972;7.856;2024-02-23T12:22:45;95395.00;;;8.80
24201;BMP280;2801;50.972;7.856;2024-02-23T12:25:12;95405.66;;;8.76
24201;BMP280;2801;50.972;7.856;2024-02-23T12:27:41;95395.56;;;8.66
24201;BMP280;2801;50.972;7.856;2024-02-23T12:30:16;95395.13;;;8.61
24201;BMP280;2801;50.972;7.856;2024-02-23T12:32:44;95397.38;;;8.59
24201;BMP280;2801;50.972;7.856;2024-02-23T12:35:12;95400.44;;;8.61
24201;BMP280;2801;50.972;7.856;2024-02-23T12:37:40;95409.13;;;8.54
24201;BMP280;2801;50.972;7.856;2024-02-23T12:40:11;95409.91;;;8.55
24201;BMP280;2801;50.972;7.856;2024-02-23T12:42:39;95410.88;;;8.69
24201;BMP280;2801;50.972;7.856;2024-02-23T12:45:06;95409.91;;;8.81
24201;BMP280;2801;50.972;7.856;2024-02-23T12:47:33;95408.91;;;8.92
24201;BMP280;2801;50.972;7.856;2024-02-23T12:50:01;95407.16;;;9.03
24201;BMP280;2801;50.972;7.856;2024-02-23T12:52:28;95401.00;;;8.99
24201;BMP280;2801;50.972;7.856;2024-02-23T12:54:55;95407.63;;;9.09
24201;BMP280;2801;50.972;7.856;2024-02-23T12:57:22;95410.75;;;9.14
24201;BMP280;2801;50.972;7.856;2024-02-23T12:59:49;95397.13;;;9.23
24201;BMP280;2801;50.972;7.856;2024-02-23T13:02:16;95405.09;;;9.19
24201;BMP280;2801;50.972;7.856;2024-02-23T13:04:43;95399.25;;;9.10
24201;BMP280;2801;50.972;7.856;2024-02-23T13:07:16;95408.03;;;9.11
24201;BMP280;2801;50.972;7.856;2024-02-23T13:09:44;95393.47;;;9.08
24201;BMP280;2801;50.972;7.856;2024-02-23T13:12:11;95396.34;;;8.93
24201;BMP280;2801;50.972;7.856;2024-02-23T13:14:38;95399.00;;;8.93
24201;BMP280;2801;50.972;7.856;2024-02-23T13:17:06;95394.59;;;9.04
24201;BMP280;2801;50.972;7.856;2024-02-23T13:19:32;95402.31;;;9.12
24201;BMP280;2801;50.972;7.856;2024-02-23T13:21:59;95406.28;;;9.22
24201;BMP280;2801;50.972;7.856;2024-02-23T13:24:29;95394.72;;;9.14
24201;BMP280;2801;50.972;7.856;2024-02-23T13:26:56;95406.63;;;9.20
24201;BMP280;2801;50.972;7.856;2024-02-23T13:29:23;95408.63;;;9.27
24201;BMP280;2801;50.972;7.856;2024-02-23T13:31:50;95402.50;;;9.26
24201;BMP280;2801;50.972;7.856;2024-02-23T13:34:17;95399.72;;;9.19
24201;BMP280;2801;50.972;7.856;2024-02-23T13:36:45;95402.41;;;9.19
24201;BMP280;2801;50.972;7.856;2024-02-23T13:39:20;95391.09;;;9.29
24201;BMP280;2801;50.972;7.856;2024-02-23T13:41:47;95403.97;;;9.20
24201;BMP280;2801;50.972;7.856;2024-02-23T13:44:14;95390.38;;;9.32
24201;BMP280;2801;50.972;7.856;2024-02-23T13:46:42;95413.88;;;9.20
24201;BMP280;2801;50.972;7.856;2024-02-23T13:49:09;95417.75;;;8.96
24201;BMP280;2801;50.972;7.856;2024-02-23T13:51:37;95406.78;;;8.75
24201;BMP280;2801;50.972;7.856;2024-02-23T13:54:04;95407.72;;;8.60
24201;BMP280;2801;50.972;7.856;2024-02-23T13:56:31;95416.75;;;8.52
24201;BMP280;2801;50.972;7.856;2024-02-23T13:59:05;95409.84;;;8.51
24201;BMP280;2801;50.972;7.856;2024-02-23T14:01:32;95415.66;;;8.57
24201;BMP280;2801;50.972;7.856;2024-02-23T14:03:59;95402.66;;;8.55
24201;BMP280;2801;50.972;7.856;2024-02-23T14:06:26;95404.31;;;8.63
24201;BMP280;2801;50.972;7.856;2024-02-23T14:08:53;95406.16;;;8.59
24201;BMP280;2801;50.972;7.856;2024-02-23T14:11:20;95404.84;;;8.72
24201;BMP280;2801;50.972;7.856;2024-02-23T14:13:47;95407.25;;;8.81
24201;BMP280;2801;50.972;7.856;2024-02-23T14:16:17;95401.16;;;8.84
24201;BMP280;2801;50.972;7.856;2024-02-23T14:18:44;95401.25;;;8.91
24201;BMP280;2801;50.972;7.856;2024-02-23T14:21:11;95395.06;;;8.83
24201;BMP280;2801;50.972;7.856;2024-02-23T14:23:41;95394.66;;;8.81
24201;BMP280;2801;50.972;7.856;2024-02-23T14:26:09;95385.25;;;8.65
24201;BMP280;2801;50.972;7.856;2024-02-23T14:28:36;95405.53;;;8.69
24201;BMP280;2801;50.972;7.856;2024-02-23T14:31:03;95397.50;;;8.66
24201;BMP280;2801;50.972;7.856;2024-02-23T14:33:32;95406.88;;;8.56
24201;BMP280;2801;50.972;7.856;2024-02-23T14:35:59;95416.69;;;8.49
24201;BMP280;2801;50.972;7.856;2024-02-23T14:38:26;95420.25;;;8.34